sensor_id;sensor_type;location;lat;lon;timestamp;P1;durP1;ratioP1;P2;durP2;ratioP2
1779;SDS011;10019;46.670;14.260;2022-11-15T00:01:31;32.37;;;18.43;;
1779;SDS011;10019;46.670;14.260;2022-11-15T00:04:03;27.53;;;17.93;;
1779;SDS011;10019;46.670;14.260;2022-11-15T00:06:35;28.90;;;20.30;;
1779;SDS011;10019;46.670;14.260;2022-11-15T00:09:07;30.13;;;20.20;;
1779;SDS011;10019;46.670;14.260;2022-11-15T00:11:39;25.43;;;18.20;;
1779;SDS011;10019;46.670;14.260;2022-11-15T00:14:10;33.20;;;19.53;;
1779;SDS011;10019;46.670;14.260;2022-11-15T00:16:44;31.33;;;20.23;;
1779;SDS011;10019;46.670;14.260;2022-11-15T00:19:15;32.07;;;19.57;;
1779;SDS011;10019;46.670;14.260;2022-11-15T00:21:48;31.40;;;19.87;;
1779;SDS011;10019;46.670;14.260;2022-11-15T00:24:20;28.70;;;19.20;;
1779;SDS011;10019;46.670;14.260;2022-11-15T00:26:52;32.00;;;18.90;;
1779;SDS011;10019;46.670;14.260;2022-11-15T00:29:24;33.17;;;19.07;;
1779;SDS011;10019;46.670;14.260;2022-11-15T00:31:57;29.23;;;19.47;;
1779;SDS011;10019;46.670;14.260;2022-11-15T00:34:29;28.77;;;19.33;;
1779;SDS011;10019;46.670;14.260;2022-11-15T00:37:00;28.30;;;19.40;;
1779;SDS011;10019;46.670;14.260;2022-11-15T00:39:32;27.03;;;18.07;;
1779;SDS011;10019;46.670;14.260;2022-11-15T00:42:04;29.50;;;19.97;;
1779;SDS011;10019;46.670;14.260;2022-11-15T00:44:35;28.57;;;17.60;;
1779;SDS011;10019;46.670;14.260;2022-11-15T00:47:08;25.40;;;17.20;;
1779;SDS011;10019;46.670;14.260;2022-11-15T00:49:41;26.90;;;17.50;;
1779;SDS011;10019;46.670;14.260;2022-11-15T00:52:13;29.03;;;18.03;;
1779;SDS011;10019;46.670;14.260;2022-11-15T00:54:45;27.23;;;17.70;;
1779;SDS011;10019;46.670;14.260;2022-11-15T00:57:16;32.63;;;17.50;;
1779;SDS011;10019;46.670;14.260;2022-11-15T00:59:48;27.60;;;18.60;;
1779;SDS011;10019;46.670;14.260;2022-11-15T01:02:21;30.33;;;20.50;;
1779;SDS011;10019;46.670;14.260;2022-11-15T01:04:53;32.07;;;19.20;;
1779;SDS011;10019;46.670;14.260;2022-11-15T01:07:24;31.00;;;20.20;;
1779;SDS011;10019;46.670;14.260;2022-11-15T01:09:56;31.03;;;17.53;;
1779;SDS011;10019;46.670;14.260;2022-11-15T01:12:27;25.80;;;17.90;;
1779;SDS011;10019;46.670;14.260;2022-11-15T01:14:59;25.27;;;17.07;;
1779;SDS011;10019;46.670;14.260;2022-11-15T01:17:32;24.23;;;17.07;;
1779;SDS011;10019;46.670;14.260;2022-11-15T01:20:04;26.60;;;17.77;;
1779;SDS011;10019;46.670;14.260;2022-11-15T01:22:36;29.17;;;17.47;;
1779;SDS011;10019;46.670;14.260;2022-11-15T01:25:08;25.00;;;16.80;;
1779;SDS011;10019;46.670;14.260;2022-11-15T01:27:40;25.23;;;17.10;;
1779;SDS011;10019;46.670;14.260;2022-11-15T01:30:12;27.37;;;18.63;;
1779;SDS011;10019;46.670;14.260;2022-11-15T01:32:45;27.00;;;16.97;;
1779;SDS011;10019;46.670;14.260;2022-11-15T01:35:16;24.07;;;17.10;;
1779;SDS011;10019;46.670;14.260;2022-11-15T01:37:48;24.23;;;16.90;;
1779;SDS011;10019;46.670;14.260;2022-11-15T01:40:20;25.17;;;15.37;;
1779;SDS011;10019;46.670;14.260;2022-11-15T01:42:51;30.80;;;16.63;;
1779;SDS011;10019;46.670;14.260;2022-11-15T01:45:23;23.27;;;16.57;;
1779;SDS011;10019;46.670;14.260;2022-11-15T01:47:56;23.43;;;15.83;;
1779;SDS011;10019;46.670;14.260;2022-11-15T01:50:29;28.13;;;18.80;;
1779;SDS011;10019;46.670;14.260;2022-11-15T01:53:02;24.70;;;16.70;;
1779;SDS011;10019;46.670;14.260;2022-11-15T01:55:33;25.10;;;16.80;;
1779;SDS011;10019;46.670;14.260;2022-11-15T01:58:05;30.60;;;18.03;;
1779;SDS011;10019;46.670;14.260;2022-11-15T02:00:38;27.17;;;17.13;;
1779;SDS011;10019;46.670;14.260;2022-11-15T02:03:11;28.60;;;18.23;;
1779;SDS011;10019;46.670;14.260;2022-11-15T02:05:43;25.27;;;16.90;;
1779;SDS011;10019;46.670;14.260;2022-11-15T02:08:15;27.87;;;19.20;;
1779;SDS011;10019;46.670;14.260;2022-11-15T02:10:50;29.17;;;18.70;;
1779;SDS011;10019;46.670;14.260;2022-11-15T02:13:22;25.73;;;16.63;;
1779;SDS011;10019;46.670;14.260;2022-11-15T02:15:56;23.90;;;16.00;;
1779;SDS011;10019;46.670;14.260;2022-11-15T02:18:32;31.50;;;18.20;;
1779;SDS011;10019;46.670;14.260;2022-11-15T02:21:14;27.00;;;18.40;;
1779;SDS011;10019;46.670;14.260;2022-11-15T02:23:55;29.10;;;18.27;;
1779;SDS011;10019;46.670;14.260;2022-11-15T02:29:42;25.63;;;16.20;;
1779;SDS011;10019;46.670;14.260;2022-11-15T02:32:28;28.77;;;18.53;;
1779;SDS011;10019;46.670;14.260;2022-11-15T02:35:07;19.93;;;15.37;;
1779;SDS011;10019;46.670;14.260;2022-11-15T02:37:44;24.93;;;16.50;;
1779;SDS011;10019;46.670;14.260;2022-11-15T02:40:23;26.07;;;16.37;;
1779;SDS011;10019;46.670;14.260;2022-11-15T02:43:01;27.03;;;17.57;;
1779;SDS011;10019;46.670;14.260;2022-11-15T02:46:12;30.80;;;16.90;;
1779;SDS011;10019;46.670;14.260;2022-11-15T02:48:48;25.40;;;16.83;;
1779;SDS011;10019;46.670;14.260;2022-11-15T02:51:21;23.13;;;16.47;;
1779;SDS011;10019;46.670;14.260;2022-11-15T02:53:53;24.00;;;16.40;;
1779;SDS011;10019;46.670;14.260;2022-11-15T02:56:24;25.50;;;16.00;;
1779;SDS011;10019;46.670;14.260;2022-11-15T02:59:09;25.63;;;16.60;;
1779;SDS011;10019;46.670;14.260;2022-11-15T03:01:53;22.73;;;15.77;;
1779;SDS011;10019;46.670;14.260;2022-11-15T03:04:35;22.60;;;15.37;;
1779;SDS011;10019;46.670;14.260;2022-11-15T03:07:10;23.40;;;16.53;;
1779;SDS011;10019;46.670;14.260;2022-11-15T03:09:47;21.50;;;15.80;;
1779;SDS011;10019;46.670;14.260;2022-11-15T03:12:23;24.07;;;15.83;;
1779;SDS011;10019;46.670;14.260;2022-11-15T03:15:00;21.93;;;15.57;;
1779;SDS011;10019;46.670;14.260;2022-11-15T03:17:33;24.03;;;16.00;;
1779;SDS011;10019;46.670;14.260;2022-11-15T03:20:09;24.60;;;17.40;;
1779;SDS011;10019;46.670;14.260;2022-11-15T03:22:44;24.23;;;16.73;;
1779;SDS011;10019;46.670;14.260;2022-11-15T03:25:19;26.10;;;17.20;;
1779;SDS011;10019;46.670;14.260;2022-11-15T03:27:54;24.20;;;16.97;;
1779;SDS011;10019;46.670;14.260;2022-11-15T03:30:27;25.70;;;17.43;;
1779;SDS011;10019;46.670;14.260;2022-11-15T03:33:00;23.90;;;16.77;;
1779;SDS011;10019;46.670;14.260;2022-11-15T03:35:35;25.00;;;17.70;;
1779;SDS011;10019;46.670;14.260;2022-11-15T03:38:11;28.07;;;15.63;;
1779;SDS011;10019;46.670;14.260;2022-11-15T03:40:47;30.70;;;19.90;;
1779;SDS011;10019;46.670;14.260;2022-11-15T03:43:24;29.47;;;19.00;;
1779;SDS011;10019;46.670;14.260;2022-11-15T03:46:01;30.07;;;18.80;;
1779;SDS011;10019;46.670;14.260;2022-11-15T03:48:34;24.23;;;17.37;;
1779;SDS011;10019;46.670;14.260;2022-11-15T03:51:10;25.80;;;18.43;;
1779;SDS011;10019;46.670;14.260;2022-11-15T03:53:42;28.00;;;17.70;;
1779;SDS011;10019;46.670;14.260;2022-11-15T03:56:13;29.57;;;15.00;;
1779;SDS011;10019;46.670;14.260;2022-11-15T03:58:45;23.60;;;16.40;;
1779;SDS011;10019;46.670;14.260;2022-11-15T04:01:17;24.97;;;17.50;;
1779;SDS011;10019;46.670;14.260;2022-11-15T04:03:48;22.50;;;16.80;;
1779;SDS011;10019;46.670;14.260;2022-11-15T04:06:22;24.77;;;17.70;;
1779;SDS011;10019;46.670;14.260;2022-11-15T04:08:53;30.83;;;18.90;;
1779;SDS011;10019;46.670;14.260;2022-11-15T04:11:25;25.27;;;16.70;;
1779;SDS011;10019;46.670;14.260;2022-11-15T04:13:57;28.10;;;17.63;;
1779;SDS011;10019;46.670;14.260;2022-11-15T04:16:29;30.43;;;18.30;;
1779;SDS011;10019;46.670;14.260;2022-11-15T04:19:00;26.03;;;18.33;;
1779;SDS011;10019;46.670;14.260;2022-11-15T04:21:51;25.70;;;16.90;;
1779;SDS011;10019;46.670;14.260;2022-11-15T04:24:40;27.87;;;16.93;;
1779;SDS011;10019;46.670;14.260;2022-11-15T04:27:12;27.23;;;17.87;;
1779;SDS011;10019;46.670;14.260;2022-11-15T04:29:44;32.27;;;18.57;;
1779;SDS011;10019;46.670;14.260;2022-11-15T04:32:16;25.40;;;18.40;;
1779;SDS011;10019;46.670;14.260;2022-11-15T04:34:47;24.20;;;16.30;;
1779;SDS011;10019;46.670;14.260;2022-11-15T04:37:21;27.77;;;17.63;;
1779;SDS011;10019;46.670;14.260;2022-11-15T04:39:52;23.83;;;16.60;;
1779;SDS011;10019;46.670;14.260;2022-11-15T04:42:24;22.30;;;16.90;;
1779;SDS011;10019;46.670;14.260;2022-11-15T04:44:56;23.03;;;15.07;;
1779;SDS011;10019;46.670;14.260;2022-11-15T04:47:28;22.10;;;15.40;;
1779;SDS011;10019;46.670;14.260;2022-11-15T04:49:59;21.10;;;15.80;;
1779;SDS011;10019;46.670;14.260;2022-11-15T04:52:32;23.83;;;15.57;;
1779;SDS011;10019;46.670;14.260;2022-11-15T04:55:04;22.50;;;16.30;;
1779;SDS011;10019;46.670;14.260;2022-11-15T04:57:37;26.97;;;16.40;;
1779;SDS011;10019;46.670;14.260;2022-11-15T05:00:10;23.63;;;17.20;;
1779;SDS011;10019;46.670;14.260;2022-11-15T05:02:43;20.40;;;15.00;;
1779;SDS011;10019;46.670;14.260;2022-11-15T05:05:32;21.93;;;15.97;;
1779;SDS011;10019;46.670;14.260;2022-11-15T05:08:05;21.43;;;14.97;;
1779;SDS011;10019;46.670;14.260;2022-11-15T05:10:37;21.93;;;14.00;;
1779;SDS011;10019;46.670;14.260;2022-11-15T05:13:08;22.23;;;15.37;;
1779;SDS011;10019;46.670;14.260;2022-11-15T05:15:40;21.23;;;15.43;;
1779;SDS011;10019;46.670;14.260;2022-11-15T05:18:12;21.73;;;14.27;;
1779;SDS011;10019;46.670;14.260;2022-11-15T05:20:43;22.67;;;14.10;;
1779;SDS011;10019;46.670;14.260;2022-11-15T05:23:16;24.10;;;15.60;;
1779;SDS011;10019;46.670;14.260;2022-11-15T05:25:48;22.77;;;14.70;;
1779;SDS011;10019;46.670;14.260;2022-11-15T05:28:20;20.37;;;14.60;;
1779;SDS011;10019;46.670;14.260;2022-11-15T05:30:52;20.80;;;13.63;;
1779;SDS011;10019;46.670;14.260;2022-11-15T05:33:23;20.73;;;15.00;;
1779;SDS011;10019;46.670;14.260;2022-11-15T05:35:56;23.47;;;15.13;;
1779;SDS011;10019;46.670;14.260;2022-11-15T05:38:33;25.33;;;14.27;;
1779;SDS011;10019;46.670;14.260;2022-11-15T05:41:05;22.03;;;15.20;;
1779;SDS011;10019;46.670;14.260;2022-11-15T05:43:37;20.87;;;14.90;;
1779;SDS011;10019;46.670;14.260;2022-11-15T05:46:09;21.73;;;14.43;;
1779;SDS011;10019;46.670;14.260;2022-11-15T05:48:42;19.33;;;15.17;;
1779;SDS011;10019;46.670;14.260;2022-11-15T05:51:15;20.90;;;14.90;;
1779;SDS011;10019;46.670;14.260;2022-11-15T05:53:49;18.60;;;14.17;;
1779;SDS011;10019;46.670;14.260;2022-11-15T05:56:22;19.37;;;15.50;;
1779;SDS011;10019;46.670;14.260;2022-11-15T05:58:54;19.37;;;13.60;;
1779;SDS011;10019;46.670;14.260;2022-11-15T06:01:26;23.50;;;14.67;;
1779;SDS011;10019;46.670;14.260;2022-11-15T06:03:59;22.30;;;14.63;;
1779;SDS011;10019;46.670;14.260;2022-11-15T06:06:30;28.33;;;15.37;;
1779;SDS011;10019;46.670;14.260;2022-11-15T06:09:03;21.63;;;13.57;;
1779;SDS011;10019;46.670;14.260;2022-11-15T06:11:35;20.87;;;13.87;;
1779;SDS011;10019;46.670;14.260;2022-11-15T06:14:07;22.00;;;14.50;;
1779;SDS011;10019;46.670;14.260;2022-11-15T06:16:38;17.67;;;12.60;;
1779;SDS011;10019;46.670;14.260;2022-11-15T06:19:10;17.17;;;13.23;;
1779;SDS011;10019;46.670;14.260;2022-11-15T06:21:42;19.63;;;13.23;;
1779;SDS011;10019;46.670;14.260;2022-11-15T06:24:15;14.83;;;12.33;;
1779;SDS011;10019;46.670;14.260;2022-11-15T06:26:46;17.23;;;12.77;;
1779;SDS011;10019;46.670;14.260;2022-11-15T06:29:18;16.63;;;12.30;;
1779;SDS011;10019;46.670;14.260;2022-11-15T06:31:50;18.43;;;12.70;;
1779;SDS011;10019;46.670;14.260;2022-11-15T06:34:22;26.13;;;13.87;;
1779;SDS011;10019;46.670;14.260;2022-11-15T06:36:54;17.90;;;12.00;;
1779;SDS011;10019;46.670;14.260;2022-11-15T06:39:30;25.40;;;16.73;;
1779;SDS011;10019;46.670;14.260;2022-11-15T06:42:01;23.97;;;18.40;;
1779;SDS011;10019;46.670;14.260;2022-11-15T06:44:33;25.63;;;17.20;;
1779;SDS011;10019;46.670;14.260;2022-11-15T06:47:05;22.33;;;16.30;;
1779;SDS011;10019;46.670;14.260;2022-11-15T06:49:36;21.73;;;13.97;;
1779;SDS011;10019;46.670;14.260;2022-11-15T06:52:08;18.90;;;13.53;;
1779;SDS011;10019;46.670;14.260;2022-11-15T06:54:41;19.93;;;14.67;;
1779;SDS011;10019;46.670;14.260;2022-11-15T06:57:13;24.10;;;13.70;;
1779;SDS011;10019;46.670;14.260;2022-11-15T06:59:44;17.43;;;12.83;;
1779;SDS011;10019;46.670;14.260;2022-11-15T07:02:16;17.53;;;13.33;;
1779;SDS011;10019;46.670;14.260;2022-11-15T07:04:48;18.30;;;13.70;;
1779;SDS011;10019;46.670;14.260;2022-11-15T07:07:19;19.07;;;14.40;;
1779;SDS011;10019;46.670;14.260;2022-11-15T07:09:52;22.30;;;14.77;;
1779;SDS011;10019;46.670;14.260;2022-11-15T07:12:24;23.50;;;15.07;;
1779;SDS011;10019;46.670;14.260;2022-11-15T07:14:56;18.17;;;14.20;;
1779;SDS011;10019;46.670;14.260;2022-11-15T07:17:27;21.17;;;14.57;;
1779;SDS011;10019;46.670;14.260;2022-11-15T07:19:59;19.03;;;12.47;;
1779;SDS011;10019;46.670;14.260;2022-11-15T07:22:31;16.23;;;13.07;;
1779;SDS011;10019;46.670;14.260;2022-11-15T07:25:04;15.30;;;12.40;;
1779;SDS011;10019;46.670;14.260;2022-11-15T07:27:36;23.67;;;12.23;;
1779;SDS011;10019;46.670;14.260;2022-11-15T07:30:10;14.37;;;11.37;;
1779;SDS011;10019;46.670;14.260;2022-11-15T07:32:42;17.63;;;12.70;;
1779;SDS011;10019;46.670;14.260;2022-11-15T07:35:14;15.43;;;11.67;;
1779;SDS011;10019;46.670;14.260;2022-11-15T07:37:52;13.83;;;11.80;;
1779;SDS011;10019;46.670;14.260;2022-11-15T07:40:26;12.80;;;10.10;;
1779;SDS011;10019;46.670;14.260;2022-11-15T07:43:00;17.97;;;11.87;;
1779;SDS011;10019;46.670;14.260;2022-11-15T07:45:32;12.70;;;10.00;;
1779;SDS011;10019;46.670;14.260;2022-11-15T07:48:04;14.33;;;11.53;;
1779;SDS011;10019;46.670;14.260;2022-11-15T07:50:36;14.50;;;9.97;;
1779;SDS011;10019;46.670;14.260;2022-11-15T07:53:11;16.27;;;10.33;;
1779;SDS011;10019;46.670;14.260;2022-11-15T07:55:44;14.17;;;10.40;;
1779;SDS011;10019;46.670;14.260;2022-11-15T07:58:16;14.90;;;11.80;;
1779;SDS011;10019;46.670;14.260;2022-11-15T08:00:47;18.17;;;12.30;;
1779;SDS011;10019;46.670;14.260;2022-11-15T08:03:19;16.30;;;12.20;;
1779;SDS011;10019;46.670;14.260;2022-11-15T08:05:52;19.60;;;13.23;;
1779;SDS011;10019;46.670;14.260;2022-11-15T08:08:23;17.70;;;13.57;;
1779;SDS011;10019;46.670;14.260;2022-11-15T08:10:58;19.97;;;13.53;;
1779;SDS011;10019;46.670;14.260;2022-11-15T08:13:30;18.10;;;13.80;;
1779;SDS011;10019;46.670;14.260;2022-11-15T08:16:02;18.27;;;12.80;;
1779;SDS011;10019;46.670;14.260;2022-11-15T08:18:35;19.50;;;14.03;;
1779;SDS011;10019;46.670;14.260;2022-11-15T08:21:08;19.67;;;13.33;;
1779;SDS011;10019;46.670;14.260;2022-11-15T08:23:40;19.40;;;14.37;;
1779;SDS011;10019;46.670;14.260;2022-11-15T08:26:13;25.87;;;14.90;;
1779;SDS011;10019;46.670;14.260;2022-11-15T08:28:45;21.00;;;12.97;;
1779;SDS011;10019;46.670;14.260;2022-11-15T08:31:17;19.10;;;13.60;;
1779;SDS011;10019;46.670;14.260;2022-11-15T08:33:49;18.33;;;13.77;;
1779;SDS011;10019;46.670;14.260;2022-11-15T08:36:21;17.37;;;12.70;;
1779;SDS011;10019;46.670;14.260;2022-11-15T08:38:53;17.07;;;11.63;;
1779;SDS011;10019;46.670;14.260;2022-11-15T08:41:27;19.17;;;13.90;;
1779;SDS011;10019;46.670;14.260;2022-11-15T08:44:01;19.47;;;13.47;;
1779;SDS011;10019;46.670;14.260;2022-11-15T08:46:33;18.63;;;13.40;;
1779;SDS011;10019;46.670;14.260;2022-11-15T08:49:04;17.67;;;12.77;;
1779;SDS011;10019;46.670;14.260;2022-11-15T08:51:36;17.67;;;13.20;;
1779;SDS011;10019;46.670;14.260;2022-11-15T08:54:08;18.73;;;13.60;;
1779;SDS011;10019;46.670;14.260;2022-11-15T08:56:41;18.30;;;13.83;;
1779;SDS011;10019;46.670;14.260;2022-11-15T08:59:13;18.67;;;13.73;;
1779;SDS011;10019;46.670;14.260;2022-11-15T09:01:44;16.50;;;13.27;;
1779;SDS011;10019;46.670;14.260;2022-11-15T09:04:16;16.80;;;12.70;;
1779;SDS011;10019;46.670;14.260;2022-11-15T09:06:48;19.53;;;13.90;;
1779;SDS011;10019;46.670;14.260;2022-11-15T09:09:20;18.97;;;13.30;;
1779;SDS011;10019;46.670;14.260;2022-11-15T09:11:53;17.33;;;13.50;;
1779;SDS011;10019;46.670;14.260;2022-11-15T09:14:24;21.47;;;14.20;;
1779;SDS011;10019;46.670;14.260;2022-11-15T09:16:56;20.40;;;14.63;;
1779;SDS011;10019;46.670;14.260;2022-11-15T09:19:28;17.77;;;13.50;;
1779;SDS011;10019;46.670;14.260;2022-11-15T09:22:00;19.27;;;14.53;;
1779;SDS011;10019;46.670;14.260;2022-11-15T09:24:33;20.77;;;14.47;;
1779;SDS011;10019;46.670;14.260;2022-11-15T09:27:06;17.50;;;12.60;;
1779;SDS011;10019;46.670;14.260;2022-11-15T09:29:37;19.73;;;13.43;;
1779;SDS011;10019;46.670;14.260;2022-11-15T09:32:09;17.27;;;12.93;;
1779;SDS011;10019;46.670;14.260;2022-11-15T09:34:41;17.03;;;12.87;;
1779;SDS011;10019;46.670;14.260;2022-11-15T09:37:12;19.63;;;12.20;;
1779;SDS011;10019;46.670;14.260;2022-11-15T09:39:44;15.40;;;11.40;;
1779;SDS011;10019;46.670;14.260;2022-11-15T09:45:22;13.63;;;11.03;;
1779;SDS011;10019;46.670;14.260;2022-11-15T09:51:08;16.10;;;11.90;;
1779;SDS011;10019;46.670;14.260;2022-11-15T09:53:55;15.00;;;11.63;;
1779;SDS011;10019;46.670;14.260;2022-11-15T09:56:30;16.30;;;11.37;;
1779;SDS011;10019;46.670;14.260;2022-11-15T09:59:13;13.60;;;10.83;;
1779;SDS011;10019;46.670;14.260;2022-11-15T10:01:56;11.90;;;8.60;;
1779;SDS011;10019;46.670;14.260;2022-11-15T10:04:34;13.43;;;9.67;;
1779;SDS011;10019;46.670;14.260;2022-11-15T10:07:16;11.63;;;9.60;;
1779;SDS011;10019;46.670;14.260;2022-11-15T10:09:53;11.83;;;9.70;;
1779;SDS011;10019;46.670;14.260;2022-11-15T10:12:27;11.90;;;9.70;;
1779;SDS011;10019;46.670;14.260;2022-11-15T10:15:02;10.13;;;8.20;;
1779;SDS011;10019;46.670;14.260;2022-11-15T10:17:43;12.63;;;8.97;;
1779;SDS011;10019;46.670;14.260;2022-11-15T10:20:30;9.67;;;8.03;;
1779;SDS011;10019;46.670;14.260;2022-11-15T10:23:06;10.00;;;8.30;;
1779;SDS011;10019;46.670;14.260;2022-11-15T10:25:42;12.03;;;8.03;;
1779;SDS011;10019;46.670;14.260;2022-11-15T10:28:16;9.73;;;8.13;;
1779;SDS011;10019;46.670;14.260;2022-11-15T10:30:50;11.03;;;8.13;;
1779;SDS011;10019;46.670;14.260;2022-11-15T10:33:29;10.50;;;8.70;;
1779;SDS011;10019;46.670;14.260;2022-11-15T10:36:20;10.40;;;8.30;;
1779;SDS011;10019;46.670;14.260;2022-11-15T10:38:57;9.30;;;7.27;;
1779;SDS011;10019;46.670;14.260;2022-11-15T10:41:30;10.97;;;8.67;;
1779;SDS011;10019;46.670;14.260;2022-11-15T10:44:12;10.10;;;8.33;;
1779;SDS011;10019;46.670;14.260;2022-11-15T10:47:04;9.77;;;6.90;;
1779;SDS011;10019;46.670;14.260;2022-11-15T10:49:56;11.77;;;7.20;;
1779;SDS011;10019;46.670;14.260;2022-11-15T10:52:33;9.87;;;7.60;;
1779;SDS011;10019;46.670;14.260;2022-11-15T10:55:20;11.43;;;8.30;;
1779;SDS011;10019;46.670;14.260;2022-11-15T10:57:54;9.30;;;8.30;;
1779;SDS011;10019;46.670;14.260;2022-11-15T11:00:29;9.73;;;8.33;;
1779;SDS011;10019;46.670;14.260;2022-11-15T11:03:03;10.93;;;8.00;;
1779;SDS011;10019;46.670;14.260;2022-11-15T11:05:39;10.07;;;7.97;;
1779;SDS011;10019;46.670;14.260;2022-11-15T11:08:21;10.83;;;8.70;;
1779;SDS011;10019;46.670;14.260;2022-11-15T11:10:55;10.07;;;7.80;;
1779;SDS011;10019;46.670;14.260;2022-11-15T11:13:28;10.50;;;7.80;;
1779;SDS011;10019;46.670;14.260;2022-11-15T11:16:07;9.80;;;8.27;;
1779;SDS011;10019;46.670;14.260;2022-11-15T11:18:49;8.70;;;7.00;;
1779;SDS011;10019;46.670;14.260;2022-11-15T11:21:36;9.40;;;7.00;;
1779;SDS011;10019;46.670;14.260;2022-11-15T11:24:14;9.97;;;6.97;;
1779;SDS011;10019;46.670;14.260;2022-11-15T11:26:54;6.77;;;5.93;;
1779;SDS011;10019;46.670;14.260;2022-11-15T11:29:44;8.43;;;6.17;;
1779;SDS011;10019;46.670;14.260;2022-11-15T11:32:28;6.80;;;5.23;;
1779;SDS011;10019;46.670;14.260;2022-11-15T11:35:08;7.90;;;5.87;;
1779;SDS011;10019;46.670;14.260;2022-11-15T11:37:47;6.83;;;6.10;;
1779;SDS011;10019;46.670;14.260;2022-11-15T11:40:26;8.07;;;6.20;;
1779;SDS011;10019;46.670;14.260;2022-11-15T11:43:03;6.43;;;5.60;;
1779;SDS011;10019;46.670;14.260;2022-11-15T11:45:47;6.40;;;5.63;;
1779;SDS011;10019;46.670;14.260;2022-11-15T11:48:36;8.00;;;6.20;;
1779;SDS011;10019;46.670;14.260;2022-11-15T11:51:13;7.00;;;5.70;;
1779;SDS011;10019;46.670;14.260;2022-11-15T11:53:52;6.27;;;5.50;;
1779;SDS011;10019;46.670;14.260;2022-11-15T11:56:27;6.90;;;5.10;;
1779;SDS011;10019;46.670;14.260;2022-11-15T11:59:02;6.10;;;5.20;;
1779;SDS011;10019;46.670;14.260;2022-11-15T12:01:39;7.13;;;5.27;;
1779;SDS011;10019;46.670;14.260;2022-11-15T12:04:14;6.07;;;4.80;;
1779;SDS011;10019;46.670;14.260;2022-11-15T12:06:49;4.77;;;4.30;;
1779;SDS011;10019;46.670;14.260;2022-11-15T12:09:26;4.50;;;4.10;;
1779;SDS011;10019;46.670;14.260;2022-11-15T12:12:04;4.97;;;4.20;;
1779;SDS011;10019;46.670;14.260;2022-11-15T12:14:42;5.80;;;4.77;;
1779;SDS011;10019;46.670;14.260;2022-11-15T12:17:17;6.07;;;4.90;;
1779;SDS011;10019;46.670;14.260;2022-11-15T12:19:52;6.33;;;5.30;;
1779;SDS011;10019;46.670;14.260;2022-11-15T12:22:33;5.60;;;4.77;;
1779;SDS011;10019;46.670;14.260;2022-11-15T12:25:13;5.17;;;4.67;;
1779;SDS011;10019;46.670;14.260;2022-11-15T12:27:48;6.43;;;5.73;;
1779;SDS011;10019;46.670;14.260;2022-11-15T12:30:23;6.50;;;5.70;;
1779;SDS011;10019;46.670;14.260;2022-11-15T12:32:57;5.40;;;4.80;;
1779;SDS011;10019;46.670;14.260;2022-11-15T12:35:32;6.23;;;5.27;;
1779;SDS011;10019;46.670;14.260;2022-11-15T12:38:08;7.50;;;5.90;;
1779;SDS011;10019;46.670;14.260;2022-11-15T12:43:45;5.40;;;4.87;;
1779;SDS011;10019;46.670;14.260;2022-11-15T12:46:21;6.00;;;4.67;;
1779;SDS011;10019;46.670;14.260;2022-11-15T12:48:58;6.03;;;4.77;;
1779;SDS011;10019;46.670;14.260;2022-11-15T13:00:59;4.00;;;3.60;;
1779;SDS011;10019;46.670;14.260;2022-11-15T13:03:31;9.07;;;4.50;;
1779;SDS011;10019;46.670;14.260;2022-11-15T13:06:07;6.13;;;4.57;;
1779;SDS011;10019;46.670;14.260;2022-11-15T13:08:45;4.20;;;3.80;;
1779;SDS011;10019;46.670;14.260;2022-11-15T13:14:43;4.07;;;3.67;;
1779;SDS011;10019;46.670;14.260;2022-11-15T13:17:24;4.07;;;3.57;;
1779;SDS011;10019;46.670;14.260;2022-11-15T13:20:23;4.37;;;3.97;;
1779;SDS011;10019;46.670;14.260;2022-11-15T13:23:00;4.73;;;3.60;;
1779;SDS011;10019;46.670;14.260;2022-11-15T13:25:47;5.43;;;3.47;;
1779;SDS011;10019;46.670;14.260;2022-11-15T13:28:27;4.10;;;3.53;;
1779;SDS011;10019;46.670;14.260;2022-11-15T13:31:14;3.50;;;3.20;;
1779;SDS011;10019;46.670;14.260;2022-11-15T13:33:55;4.00;;;3.60;;
1779;SDS011;10019;46.670;14.260;2022-11-15T13:36:29;3.80;;;3.43;;
1779;SDS011;10019;46.670;14.260;2022-11-15T13:39:03;4.80;;;4.07;;
1779;SDS011;10019;46.670;14.260;2022-11-15T13:41:36;4.10;;;3.67;;
1779;SDS011;10019;46.670;14.260;2022-11-15T13:44:18;4.10;;;3.63;;
1779;SDS011;10019;46.670;14.260;2022-11-15T13:47:01;5.17;;;3.93;;
1779;SDS011;10019;46.670;14.260;2022-11-15T13:49:37;3.47;;;3.17;;
1779;SDS011;10019;46.670;14.260;2022-11-15T13:52:10;4.93;;;3.37;;
1779;SDS011;10019;46.670;14.260;2022-11-15T13:54:47;4.33;;;3.50;;
1779;SDS011;10019;46.670;14.260;2022-11-15T13:57:23;4.20;;;3.80;;
1779;SDS011;10019;46.670;14.260;2022-11-15T13:59:59;4.10;;;3.50;;
1779;SDS011;10019;46.670;14.260;2022-11-15T14:02:34;3.63;;;3.33;;
1779;SDS011;10019;46.670;14.260;2022-11-15T14:05:14;6.00;;;3.80;;
1779;SDS011;10019;46.670;14.260;2022-11-15T14:07:52;4.67;;;4.23;;
1779;SDS011;10019;46.670;14.260;2022-11-15T14:10:25;4.37;;;3.63;;
1779;SDS011;10019;46.670;14.260;2022-11-15T14:13:00;5.73;;;4.30;;
1779;SDS011;10019;46.670;14.260;2022-11-15T14:15:34;4.70;;;4.07;;
1779;SDS011;10019;46.670;14.260;2022-11-15T14:21:09;5.50;;;4.50;;
1779;SDS011;10019;46.670;14.260;2022-11-15T14:23:41;4.13;;;3.70;;
1779;SDS011;10019;46.670;14.260;2022-11-15T14:26:25;5.63;;;3.70;;
1779;SDS011;10019;46.670;14.260;2022-11-15T14:32:05;4.57;;;4.10;;
1779;SDS011;10019;46.670;14.260;2022-11-15T14:34:42;4.60;;;4.10;;
1779;SDS011;10019;46.670;14.260;2022-11-15T14:37:22;5.27;;;4.43;;
1779;SDS011;10019;46.670;14.260;2022-11-15T14:39:55;5.63;;;4.53;;
1779;SDS011;10019;46.670;14.260;2022-11-15T14:42:27;5.70;;;4.40;;
1779;SDS011;10019;46.670;14.260;2022-11-15T14:44:58;6.37;;;4.77;;
1779;SDS011;10019;46.670;14.260;2022-11-15T14:47:30;4.50;;;3.87;;
1779;SDS011;10019;46.670;14.260;2022-11-15T14:50:02;5.70;;;4.83;;
1779;SDS011;10019;46.670;14.260;2022-11-15T14:52:35;6.93;;;4.43;;
1779;SDS011;10019;46.670;14.260;2022-11-15T14:55:12;4.67;;;4.13;;
1779;SDS011;10019;46.670;14.260;2022-11-15T14:57:47;4.70;;;4.00;;
1779;SDS011;10019;46.670;14.260;2022-11-15T15:00:19;7.20;;;4.80;;
1779;SDS011;10019;46.670;14.260;2022-11-15T15:02:52;14.53;;;9.80;;
1779;SDS011;10019;46.670;14.260;2022-11-15T15:05:25;7.93;;;7.23;;
1779;SDS011;10019;46.670;14.260;2022-11-15T15:08:03;7.37;;;5.10;;
1779;SDS011;10019;46.670;14.260;2022-11-15T15:10:37;9.20;;;8.00;;
1779;SDS011;10019;46.670;14.260;2022-11-15T15:13:12;6.13;;;5.53;;
1779;SDS011;10019;46.670;14.260;2022-11-15T15:15:47;7.43;;;4.50;;
1779;SDS011;10019;46.670;14.260;2022-11-15T15:18:20;10.20;;;4.10;;
1779;SDS011;10019;46.670;14.260;2022-11-15T15:20:54;7.40;;;3.97;;
1779;SDS011;10019;46.670;14.260;2022-11-15T15:23:29;5.10;;;3.90;;
1779;SDS011;10019;46.670;14.260;2022-11-15T15:26:01;4.20;;;3.80;;
1779;SDS011;10019;46.670;14.260;2022-11-15T15:28:32;4.53;;;4.13;;
1779;SDS011;10019;46.670;14.260;2022-11-15T15:31:05;5.57;;;5.07;;
1779;SDS011;10019;46.670;14.260;2022-11-15T15:33:37;4.70;;;4.30;;
1779;SDS011;10019;46.670;14.260;2022-11-15T15:36:09;5.07;;;4.10;;
1779;SDS011;10019;46.670;14.260;2022-11-15T15:38:43;8.60;;;5.73;;
1779;SDS011;10019;46.670;14.260;2022-11-15T15:41:16;9.40;;;5.20;;
1779;SDS011;10019;46.670;14.260;2022-11-15T15:43:48;4.93;;;4.43;;
1779;SDS011;10019;46.670;14.260;2022-11-15T15:46:20;6.40;;;5.30;;